Time;durP1;ratioP1;P1;durP2;ratioP2;P2;SDS_P1;SDS_P2;PMS_P1;PMS_P2;Temp;Humidity;BMP_temperature;BMP_pressure;BME280_temperature;BME280_humidity;BME280_pressure;Samples;Min_cycle;Max_cycle;Signal;HPM_P1;HPM_P2
2023/08/25 00:01:39;;;;;;;22.30;14.65;;;;;;;23.03;76.12;94889.63;4974153;28;20239;-81
2023/08/25 00:04:05;;;;;;;27.65;18.83;;;;;;;22.93;76.28;94868.28;4973901;28;20194;-81
2023/08/25 00:06:30;;;;;;;27.70;20.65;;;;;;;22.89;76.17;94868.06;4974019;28;20200;-81
2023/08/25 00:08:56;;;;;;;24.05;15.23;;;;;;;22.99;76.13;94894.00;4973905;28;20177;-81
2023/08/25 00:11:21;;;;;;;26.58;16.15;;;;;;;22.84;76.18;94868.09;4973885;28;20613;-81
2023/08/25 00:13:46;;;;;;;21.45;13.30;;;;;;;22.81;76.14;94876.75;4973937;28;20178;-81
2023/08/25 00:16:12;;;;;;;18.10;13.27;;;;;;;22.73;76.31;94868.50;4974159;28;20169;-81
2023/08/25 00:18:37;;;;;;;24.67;15.38;;;;;;;22.78;76.70;94880.00;4973707;28;20269;-81
2023/08/25 00:21:04;;;;;;;18.23;13.75;;;;;;;22.77;76.45;94889.13;4973778;28;20162;-81
2023/08/25 00:23:29;;;;;;;17.77;13.05;;;;;;;22.68;76.88;94873.91;4973522;28;20629;-81
2023/08/25 00:25:55;;;;;;;19.67;14.13;;;;;;;22.73;76.92;94888.09;4971795;28;20205;-81
2023/08/25 00:28:21;;;;;;;20.92;13.93;;;;;;;22.65;76.95;94861.88;4971912;28;20184;-81
2023/08/25 00:30:48;;;;;;;19.85;13.07;;;;;;;22.79;76.90;94886.97;4971704;28;20672;-81
2023/08/25 00:33:13;;;;;;;25.20;13.25;;;;;;;22.61;76.67;94868.91;4971768;28;20177;-81
2023/08/25 00:35:41;;;;;;;22.42;14.32;;;;;;;22.79;76.54;94900.41;4971782;28;20556;-81
2023/08/25 00:38:06;;;;;;;22.20;14.05;;;;;;;22.69;76.75;94881.69;4972748;28;20178;-81
2023/08/25 00:40:37;;;;;;;19.83;13.80;;;;;;;22.78;76.82;94890.75;4973553;28;20568;-81
2023/08/25 00:43:03;;;;;;;26.02;15.15;;;;;;;22.68;77.10;94876.59;4959750;28;20166;-81
2023/08/25 00:45:32;;;;;;;20.75;13.65;;;;;;;22.65;77.11;94875.31;4973068;28;20185;-80
2023/08/25 00:47:58;;;;;;;21.63;12.88;;;;;;;22.57;76.80;94860.59;4973130;28;20174;-81
2023/08/25 00:50:24;;;;;;;19.45;13.70;;;;;;;22.66;76.86;94871.50;4973364;28;20190;-81
2023/08/25 00:52:49;;;;;;;24.20;13.55;;;;;;;22.70;77.48;94890.53;4973467;28;20170;-81
2023/08/25 00:55:15;;;;;;;22.75;14.48;;;;;;;22.64;77.31;94878.28;4973608;28;20169;-81
2023/08/25 00:57:40;;;;;;;18.65;13.73;;;;;;;22.53;77.44;94873.00;4973082;28;20224;-81
2023/08/25 01:00:09;;;;;;;20.25;13.35;;;;;;;22.62;77.70;94889.28;4973262;28;20177;-81
2023/08/25 01:02:34;;;;;;;19.98;13.55;;;;;;;22.49;77.51;94879.22;4973164;28;20240;-81
2023/08/25 01:05:00;;;;;;;22.83;13.70;;;;;;;22.59;77.45;94890.66;4972889;28;20197;-81
2023/08/25 01:07:25;;;;;;;20.92;13.73;;;;;;;22.53;77.53;94885.63;4973386;28;20174;-81
2023/08/25 01:09:50;;;;;;;19.95;12.77;;;;;;;22.59;77.47;94898.69;4972980;28;20264;-81
2023/08/25 01:12:35;;;;;;;19.48;13.48;;;;;;;22.53;77.50;94882.94;4973073;28;20173;-81
2023/08/25 01:15:07;;;;;;;16.52;12.57;;;;;;;22.31;77.29;94859.31;4968466;28;20177;-81
2023/08/25 01:17:48;;;;;;;19.27;12.98;;;;;;;22.58;77.75;94898.97;4969246;28;20253;-81
2023/08/25 01:20:15;;;;;;;19.42;12.27;;;;;;;22.55;77.73;94888.84;4971619;28;20173;-81
2023/08/25 01:23:08;;;;;;;18.92;13.18;;;;;;;22.57;77.92;94900.09;4973196;28;20228;-81
2023/08/25 01:25:34;;;;;;;17.05;12.40;;;;;;;22.49;77.42;94873.84;4973121;28;20228;-81
2023/08/25 01:28:04;;;;;;;14.88;11.90;;;;;;;22.56;77.86;94893.13;4964325;28;20268;-81
2023/08/25 01:30:32;;;;;;;16.85;12.63;;;;;;;22.55;78.09;94884.25;4973117;28;20616;-81
2023/08/25 01:32:58;;;;;;;19.48;12.40;;;;;;;22.47;77.96;94868.00;4955545;28;20177;-81
2023/08/25 01:35:38;;;;;;;17.05;12.52;;;;;;;22.57;77.86;94886.66;4955601;28;20205;-81
2023/08/25 01:38:46;;;;;;;19.80;12.45;;;;;;;22.46;78.21;94882.47;4955507;28;20188;-81
2023/08/25 01:41:33;;;;;;;17.85;13.25;;;;;;;22.47;78.21;94889.44;4944415;28;20186;-81
2023/08/25 01:44:02;;;;;;;16.00;12.02;;;;;;;22.33;78.92;94878.56;4967334;28;20189;-81
2023/08/25 01:46:29;;;;;;;19.40;13.13;;;;;;;22.19;79.13;94862.38;4967699;28;20166;-81
2023/08/25 01:48:56;;;;;;;18.88;13.30;;;;;;;22.29;79.47;94880.25;4972786;28;20200;-81
2023/08/25 01:51:22;;;;;;;19.20;12.77;;;;;;;22.03;80.14;94847.50;4972667;28;20182;-81
2023/08/25 01:53:53;;;;;;;16.73;13.82;;;;;;;21.92;81.35;94867.41;4971745;28;20428;-80
2023/08/25 01:56:18;;;;;;;19.40;13.85;;;;;;;21.92;80.89;94858.56;4972740;28;20653;-81
2023/08/25 01:58:44;;;;;;;19.02;13.25;;;;;;;22.00;80.88;94864.13;4972434;28;20226;-81
2023/08/25 02:01:09;;;;;;;23.27;14.35;;;;;;;22.17;80.60;94879.81;4967430;28;20720;-81
2023/08/25 02:03:35;;;;;;;27.88;16.20;;;;;;;22.05;80.68;94874.03;4969091;28;20264;-81
2023/08/25 02:06:00;;;;;;;22.53;16.30;;;;;;;21.90;81.77;94860.72;4967782;28;20429;-81
2023/08/25 02:08:26;;;;;;;21.17;13.80;;;;;;;22.05;81.13;94866.00;4968465;28;20178;-81
2023/08/25 02:10:52;;;;;;;20.58;14.27;;;;;;;22.06;81.42;94876.41;4957069;28;20181;-81
2023/08/25 02:13:18;;;;;;;21.73;14.55;;;;;;;21.99;80.74;94859.06;4962114;28;20681;-81
2023/08/25 02:15:48;;;;;;;27.30;15.13;;;;;;;22.13;80.88;94878.78;4964132;28;20166;-80
2023/08/25 02:18:14;;;;;;;21.27;14.40;;;;;;;22.10;80.46;94885.50;4966718;28;20276;-80
2023/08/25 02:20:40;;;;;;;21.27;14.45;;;;;;;22.05;80.37;94866.78;4944108;28;20664;-80
2023/08/25 02:23:06;;;;;;;20.77;13.73;;;;;;;22.04;80.62;94867.88;4958415;28;20185;-82
2023/08/25 02:25:31;;;;;;;19.25;13.95;;;;;;;22.16;80.68;94883.56;4965283;28;20556;-82
2023/08/25 02:27:57;;;;;;;19.75;13.20;;;;;;;22.23;80.50;94891.31;4966689;28;20247;-82
2023/08/25 02:30:23;;;;;;;18.55;13.20;;;;;;;22.10;80.26;94864.06;4967516;28;20174;-82
2023/08/25 02:32:48;;;;;;;17.80;13.60;;;;;;;22.27;80.38;94892.31;4950197;28;20469;-82
2023/08/25 02:35:13;;;;;;;18.25;13.15;;;;;;;22.28;80.32;94893.94;4967197;28;20177;-82
2023/08/25 02:38:07;;;;;;;16.88;12.18;;;;;;;22.32;80.08;94897.63;4976542;28;20177;-82
2023/08/25 02:40:34;;;;;;;17.13;12.65;;;;;;;22.23;79.90;94877.91;4965686;28;20551;-82
2023/08/25 02:43:01;;;;;;;23.00;13.52;;;;;;;22.32;79.71;94897.63;4965192;28;20173;-79
2023/08/25 02:45:27;;;;;;;24.05;13.98;;;;;;;22.19;79.76;94889.19;4964824;28;20225;-81
2023/08/25 02:47:53;;;;;;;18.40;15.15;;;;;;;22.08;80.21;94878.81;4964982;28;20207;-82
2023/08/25 02:50:19;;;;;;;21.13;14.73;;;;;;;22.03;80.76;94887.72;4956325;28;20169;-82
2023/08/25 02:52:45;;;;;;;24.02;15.82;;;;;;;22.15;80.61;94890.81;4956255;29;20730;-82
2023/08/25 02:55:14;;;;;;;20.75;15.05;;;;;;;22.20;80.13;94893.47;4971442;28;20174;-82
2023/08/25 02:57:40;;;;;;;23.92;16.38;;;;;;;22.11;80.06;94880.94;4966059;28;20245;-82
2023/08/25 03:00:08;;;;;;;22.63;16.50;;;;;;;22.17;80.11;94904.75;4964944;28;20210;-81
2023/08/25 03:02:34;;;;;;;23.35;16.08;;;;;;;22.02;79.93;94888.78;4947372;29;20268;-81
2023/08/25 03:04:59;;;;;;;22.15;16.88;;;;;;;21.90;79.63;94869.56;4964603;28;20282;-82
2023/08/25 03:07:25;;;;;;;21.52;14.18;;;;;;;22.12;79.88;94907.50;4965850;28;20187;-82
2023/08/25 03:09:50;;;;;;;20.55;15.13;;;;;;;21.92;80.54;94893.41;4966551;28;20212;-81
2023/08/25 03:12:15;;;;;;;22.73;15.07;;;;;;;21.88;80.89;94898.53;4966718;28;20221;-81
2023/08/25 03:14:41;;;;;;;18.10;14.15;;;;;;;21.85;80.90;94899.09;4965077;28;20598;-81
2023/08/25 03:17:06;;;;;;;19.33;14.85;;;;;;;22.00;80.93;94920.44;4960348;28;20186;-81
2023/08/25 03:19:32;;;;;;;19.05;14.60;;;;;;;22.02;80.44;94920.97;4967729;28;20576;-81
2023/08/25 03:21:57;;;;;;;23.77;14.95;;;;;;;22.02;80.47;94915.63;4966435;28;20209;-81
2023/08/25 03:24:22;;;;;;;30.35;16.95;;;;;;;21.88;80.26;94897.75;4962276;28;20265;-79
2023/08/25 03:26:48;;;;;;;21.17;15.43;;;;;;;22.01;80.51;94923.94;4965166;28;20186;-79
2023/08/25 03:29:13;;;;;;;21.00;16.63;;;;;;;21.99;80.64;94926.88;4965260;28;20186;-79
2023/08/25 03:31:39;;;;;;;41.80;26.83;;;;;;;21.98;80.38;94929.84;4965552;28;20174;-82
2023/08/25 03:34:04;;;;;;;48.00;32.45;;;;;;;21.91;80.12;94921.28;4962896;28;20178;-81
2023/08/25 03:36:30;;;;;;;24.67;17.20;;;;;;;21.93;80.72;94929.88;4963803;28;20301;-82
2023/08/25 03:38:56;;;;;;;25.27;17.63;;;;;;;21.86;80.98;94929.38;4962015;28;20650;-83
2023/08/25 03:41:21;;;;;;;26.63;18.00;;;;;;;21.79;81.24;94932.38;4966400;28;20205;-82
2023/08/25 03:43:47;;;;;;;22.85;15.20;;;;;;;21.63;81.59;94923.63;4966047;28;20174;-82
2023/08/25 03:46:12;;;;;;;24.60;18.40;;;;;;;21.56;82.11;94917.78;4961960;28;20193;-81
2023/08/25 03:48:37;;;;;;;23.17;14.48;;;;;;;21.65;82.25;94923.34;4960366;28;20210;-82
2023/08/25 03:51:03;;;;;;;21.65;14.43;;;;;;;21.59;82.55;94922.59;4960429;28;20567;-81
2023/08/25 03:53:28;;;;;;;26.55;17.13;;;;;;;21.40;82.98;94909.03;4963696;28;20174;-81
2023/08/25 03:55:54;;;;;;;20.75;13.93;;;;;;;21.52;82.81;94924.78;4946834;29;20170;-81
2023/08/25 03:58:20;;;;;;;21.05;13.75;;;;;;;21.45;83.00;94921.59;4963564;28;20226;-81
2023/08/25 04:00:54;;;;;;;18.48;15.07;;;;;;;21.39;83.04;94920.81;4951888;28;20188;-82
2023/08/25 04:03:20;;;;;;;16.20;12.43;;;;;;;21.48;83.40;94929.09;4961200;28;20170;-81
2023/08/25 04:05:45;;;;;;;27.58;19.40;;;;;;;21.31;83.97;94923.28;4962585;28;20232;-82
2023/08/25 04:08:11;;;;;;;30.90;21.70;;;;;;;21.37;84.05;94925.66;4945164;29;20359;-81
2023/08/25 04:10:37;;;;;;;25.08;16.60;;;;;;;21.48;84.31;94937.13;4961737;28;20178;-81
2023/08/25 04:13:02;;;;;;;21.80;15.75;;;;;;;21.49;84.34;94935.25;4964553;28;20174;-81
2023/08/25 04:15:28;;;;;;;24.17;15.23;;;;;;;21.53;84.25;94934.44;4960981;28;20173;-81
2023/08/25 04:17:53;;;;;;;27.17;16.42;;;;;;;21.56;83.75;94930.38;4961950;28;20205;-82
2023/08/25 04:20:19;;;;;;;20.45;13.05;;;;;;;21.61;83.63;94933.84;4963647;28;20221;-82
2023/08/25 04:22:44;;;;;;;21.67;16.42;;;;;;;21.63;83.84;94930.84;4949583;28;20587;-80
2023/08/25 04:25:10;;;;;;;23.63;14.70;;;;;;;21.73;83.38;94939.63;4963346;28;20221;-81
2023/08/25 04:27:36;;;;;;;20.73;15.48;;;;;;;21.77;83.05;94929.19;4963026;28;20526;-80
2023/08/25 04:30:03;;;;;;;21.45;16.67;;;;;;;21.79;82.78;94921.66;4970778;28;20184;-84
2023/08/25 04:32:28;;;;;;;25.00;17.27;;;;;;;21.75;82.69;94925.97;4946648;28;20618;-82
2023/08/25 04:34:54;;;;;;;36.28;25.65;;;;;;;21.99;82.68;94951.03;4940447;28;20190;-82
2023/08/25 04:37:19;;;;;;;42.08;27.00;;;;;;;22.06;82.65;94948.81;4965364;28;20170;-82
2023/08/25 04:39:44;;;;;;;42.40;27.02;;;;;;;22.26;82.84;94968.50;4964415;28;20202;-82
2023/08/25 04:42:10;;;;;;;32.53;20.75;;;;;;;22.37;81.66;94967.34;4963854;28;20178;-81
2023/08/25 04:44:35;;;;;;;39.78;21.85;;;;;;;22.47;81.61;94980.69;4962935;28;20190;-82
2023/08/25 04:47:01;;;;;;;25.75;16.27;;;;;;;22.48;81.09;94956.25;4963036;28;20182;-81
2023/08/25 04:49:26;;;;;;;23.23;13.98;;;;;;;22.69;80.14;94972.94;4963053;28;20193;-82
2023/08/25 04:51:51;;;;;;;29.63;13.95;;;;;;;22.78;79.63;94973.97;4964377;28;20171;-82
2023/08/25 04:54:17;;;;;;;47.00;15.88;;;;;;;22.88;79.68;94973.88;4965051;28;20618;-82
2023/08/25 04:56:43;;;;;;;20.90;15.88;;;;;;;22.95;78.94;94971.63;4964862;28;20249;-81
2023/08/25 04:59:08;;;;;;;22.98;16.48;;;;;;;23.18;78.68;94985.34;4971805;28;20241;-82
2023/08/25 05:01:34;;;;;;;21.58;15.07;;;;;;;23.27;78.08;94962.13;4956318;28;20205;-82
2023/08/25 05:03:59;;;;;;;25.73;17.67;;;;;;;23.60;77.42;94981.91;4973315;28;20170;-82
2023/08/25 05:06:25;;;;;;;38.60;23.45;;;;;;;23.81;76.93;94982.41;4973347;28;20181;-82
2023/08/25 05:08:50;;;;;;;20.65;13.05;;;;;;;23.95;75.84;94964.47;4973522;28;20201;-82
2023/08/25 05:11:16;;;;;;;20.55;13.18;;;;;;;24.22;75.37;94977.25;4973370;28;20554;-82
2023/08/25 05:13:41;;;;;;;20.33;15.02;;;;;;;24.54;74.52;95000.72;4973294;28;20181;-82
2023/08/25 05:16:08;;;;;;;17.98;11.95;;;;;;;24.68;73.66;94991.56;4973772;28;20252;-82
2023/08/25 05:18:33;;;;;;;18.70;13.07;;;;;;;24.78;72.90;94972.53;4973230;28;20704;-82
2023/08/25 05:21:00;;;;;;;20.88;14.00;;;;;;;25.26;72.47;95001.03;4973416;28;20205;-82
2023/08/25 05:23:25;;;;;;;22.20;13.43;;;;;;;25.51;71.78;95008.66;4973266;28;20177;-82
2023/08/25 05:25:51;;;;;;;25.05;14.80;;;;;;;25.73;70.35;95010.66;4973481;28;20219;-82
2023/08/25 05:28:16;;;;;;;18.95;13.10;;;;;;;25.93;70.18;95011.00;4973307;28;20169;-83
2023/08/25 05:30:48;;;;;;;19.35;13.40;;;;;;;26.07;68.18;94993.97;4973856;28;20181;-82
2023/08/25 05:33:14;;;;;;;26.83;16.55;;;;;;;26.38;67.83;95007.59;4973077;28;20178;-82
2023/08/25 05:35:40;;;;;;;17.45;13.02;;;;;;;26.56;66.94;95007.41;4973200;28;20174;-82
2023/08/25 05:38:05;;;;;;;13.60;10.98;;;;;;;26.68;66.59;94999.53;4973104;28;20233;-83
2023/08/25 05:40:31;;;;;;;21.50;14.25;;;;;;;26.81;65.97;94994.38;4973108;28;20174;-82
2023/08/25 05:42:56;;;;;;;23.77;16.30;;;;;;;26.94;65.21;94982.72;4973638;28;20177;-82
2023/08/25 05:45:22;;;;;;;20.67;14.90;;;;;;;27.32;65.22;95002.78;4973461;28;20200;-80
2023/08/25 05:47:47;;;;;;;20.00;14.45;;;;;;;27.51;64.59;95009.81;4972854;28;20616;-82
2023/08/25 05:50:12;;;;;;;20.27;12.88;;;;;;;27.52;63.31;94977.03;4973158;28;20232;-82
2023/08/25 05:52:41;;;;;;;18.90;12.25;;;;;;;27.82;63.18;94991.63;4976186;28;20181;-83
2023/08/25 05:55:11;;;;;;;16.23;12.65;;;;;;;27.98;62.88;94998.16;4976478;28;20232;-82
2023/08/25 05:57:36;;;;;;;14.55;11.07;;;;;;;28.07;62.13;94985.44;4975984;28;20229;-82
2023/08/25 06:00:02;;;;;;;12.80;11.35;;;;;;;28.35;60.53;94993.28;4960238;28;20616;-82
2023/08/25 06:02:29;;;;;;;18.75;10.85;;;;;;;28.56;59.83;94996.13;4972620;28;20182;-82
2023/08/25 06:04:55;;;;;;;20.50;11.20;;;;;;;28.67;60.14;94992.75;4975023;28;20208;-82
2023/08/25 06:07:20;;;;;;;15.40;9.63;;;;;;;28.93;59.21;94989.22;4976558;28;20216;-82
2023/08/25 06:09:45;;;;;;;13.57;9.98;;;;;;;28.93;58.72;94975.66;4965841;28;20194;-81
2023/08/25 06:12:11;;;;;;;17.67;10.35;;;;;;;29.03;58.32;94972.63;4976283;28;20963;-82
2023/08/25 06:14:37;;;;;;;17.70;11.20;;;;;;;29.10;58.06;94960.13;4972853;28;20175;-82
2023/08/25 06:17:03;;;;;;;13.40;10.07;;;;;;;29.36;58.53;94964.69;4963610;28;20182;-82
2023/08/25 06:19:30;;;;;;;14.27;9.70;;;;;;;29.62;56.86;94968.84;4972864;28;20244;-82
2023/08/25 06:21:55;;;;;;;16.05;10.35;;;;;;;29.70;56.76;94974.56;4964745;28;20183;-82
2023/08/25 06:24:21;;;;;;;12.95;9.85;;;;;;;29.84;56.25;94969.69;4958546;28;20202;-81
2023/08/25 06:26:47;;;;;;;16.00;10.13;;;;;;;30.01;55.42;94978.50;4976303;28;20174;-81
2023/08/25 06:29:13;;;;;;;15.30;10.60;;;;;;;30.18;55.72;94965.94;4975846;28;20268;-81
2023/08/25 06:31:38;;;;;;;20.40;13.10;;;;;;;30.57;54.77;94987.22;4976131;28;20244;-82
2023/08/25 06:34:04;;;;;;;14.57;10.95;;;;;;;30.87;54.87;94985.16;4958821;28;20277;-82
2023/08/25 06:36:30;;;;;;;12.38;9.18;;;;;;;31.26;53.17;94977.53;4976207;28;20196;-82
2023/08/25 06:38:56;;;;;;;11.43;9.23;;;;;;;31.61;52.83;94961.56;4975937;28;20181;-82
2023/08/25 06:41:22;;;;;;;14.93;9.15;;;;;;;32.11;51.22;94978.28;4975819;28;20170;-82
2023/08/25 06:43:47;;;;;;;15.63;12.77;;;;;;;32.34;50.99;94981.34;4967460;28;20690;-82
2023/08/25 06:46:13;;;;;;;13.57;8.98;;;;;;;32.46;50.02;94964.13;4975658;28;20193;-81
2023/08/25 06:48:38;;;;;;;17.45;8.95;;;;;;;32.60;49.11;94975.47;4975833;28;20613;-81
2023/08/25 06:51:03;;;;;;;13.80;9.60;;;;;;;32.34;48.63;94986.81;4975522;28;20189;-79
2023/08/25 06:53:29;;;;;;;14.30;10.13;;;;;;;32.08;50.15;94970.84;4973564;28;21065;-78
2023/08/25 06:55:54;;;;;;;12.20;9.52;;;;;;;32.13;49.35;94980.69;4975200;28;20182;-82
2023/08/25 06:58:19;;;;;;;14.05;10.20;;;;;;;32.12;50.37;94985.34;4971135;28;20228;-80
2023/08/25 07:00:45;;;;;;;14.57;11.23;;;;;;;32.35;50.77;94982.91;4963853;28;20179;-79
2023/08/25 07:03:10;;;;;;;13.15;10.80;;;;;;;32.40;49.14;94962.81;4963590;28;20653;-83
2023/08/25 07:05:38;;;;;;;13.52;9.73;;;;;;;32.60;49.01;94962.63;4964020;28;20700;-81
2023/08/25 07:08:05;;;;;;;15.90;8.75;;;;;;;33.03;48.84;94980.16;4972580;28;20178;-82
2023/08/25 07:10:30;;;;;;;11.63;9.10;;;;;;;33.32;47.78;94990.66;4946577;29;20226;-78
2023/08/25 07:12:56;;;;;;;10.30;8.68;;;;;;;33.44;46.81;94991.72;4963348;28;20223;-80
2023/08/25 07:15:21;;;;;;;15.77;9.70;;;;;;;33.54;46.91;94997.44;4966994;28;20182;-80
2023/08/25 07:17:49;;;;;;;16.70;11.13;;;;;;;33.63;47.00;94991.81;4966760;28;20703;-78
2023/08/25 07:20:15;;;;;;;17.67;9.05;;;;;;;33.83;46.70;94995.41;4966711;28;20559;-81
2023/08/25 07:22:40;;;;;;;14.38;8.55;;;;;;;33.88;46.07;94992.41;4962276;28;20185;-77
2023/08/25 07:25:06;;;;;;;16.00;11.20;;;;;;;33.92;45.77;94982.34;4963467;28;20632;-81
2023/08/25 07:27:32;;;;;;;12.80;9.52;;;;;;;34.01;45.50;94983.72;4963245;28;20724;-77
2023/08/25 07:29:58;;;;;;;12.82;8.57;;;;;;;34.08;45.39;94991.28;4963555;28;20201;-82
2023/08/25 07:32:24;;;;;;;10.77;7.95;;;;;;;34.03;45.26;94981.44;4964282;28;20175;-79
2023/08/25 07:34:49;;;;;;;13.00;9.50;;;;;;;34.11;45.22;94987.84;4973301;28;20561;-81
2023/08/25 07:37:15;;;;;;;18.65;8.73;;;;;;;34.36;45.09;95002.09;4971423;28;20941;-81
2023/08/25 07:39:41;;;;;;;13.65;8.38;;;;;;;34.22;44.12;94991.63;4969658;28;20186;-78
2023/08/25 07:42:07;;;;;;;11.88;8.05;;;;;;;34.31;44.96;94980.50;4966193;28;20195;-79
2023/08/25 07:44:33;;;;;;;10.85;8.15;;;;;;;34.64;43.62;94985.47;4970844;28;20599;-81
2023/08/25 07:46:58;;;;;;;12.55;8.02;;;;;;;34.83;42.69;95001.13;4957758;28;20186;-81
2023/08/25 07:49:24;;;;;;;10.20;7.38;;;;;;;34.85;42.66;95010.56;4957715;28;20673;-81
2023/08/25 07:51:49;;;;;;;9.43;7.30;;;;;;;34.55;42.10;94996.63;4958648;28;20166;-82
2023/08/25 07:54:14;;;;;;;9.75;6.75;;;;;;;34.33;42.82;95002.81;4966794;28;20181;-82
2023/08/25 07:56:40;;;;;;;10.75;6.95;;;;;;;34.43;42.65;94996.75;4969632;28;20624;-82
2023/08/25 07:59:06;;;;;;;8.57;6.70;;;;;;;34.77;42.55;95006.88;4969998;28;20719;-79
2023/08/25 08:01:32;;;;;;;10.27;6.93;;;;;;;34.88;41.75;95001.59;4960828;28;20273;-86
2023/08/25 08:03:58;;;;;;;9.95;7.75;;;;;;;35.19;41.59;95001.41;4958987;28;20533;-81
2023/08/25 08:06:24;;;;;;;8.77;6.65;;;;;;;35.44;40.86;95004.63;4956397;28;20186;-79
2023/08/25 08:08:49;;;;;;;11.38;6.78;;;;;;;35.54;40.10;94997.75;4963798;28;20668;-79
2023/08/25 08:11:15;;;;;;;6.95;6.30;;;;;;;35.68;40.61;95000.69;4970044;28;20194;-80
2023/08/25 08:13:40;;;;;;;8.05;6.63;;;;;;;35.33;39.24;94983.66;4970107;28;20170;-81
2023/08/25 08:16:06;;;;;;;8.68;6.55;;;;;;;35.17;38.85;94981.03;4957859;28;20607;-80
2023/08/25 08:18:31;;;;;;;6.57;5.45;;;;;;;34.75;39.32;94986.50;4965504;28;20174;-80
2023/08/25 08:20:57;;;;;;;6.90;5.78;;;;;;;33.92;40.05;94993.28;4965575;28;20174;-81
2023/08/25 08:23:23;;;;;;;8.55;6.55;;;;;;;33.20;40.41;94968.91;4958360;28;20181;-81
2023/08/25 08:25:48;;;;;;;9.63;5.88;;;;;;;33.08;41.96;94960.78;4964085;28;20202;-81
2023/08/25 08:28:15;;;;;;;6.82;5.88;;;;;;;33.39;42.04;94981.06;4955658;28;20268;-79
2023/08/25 08:30:41;;;;;;;8.02;5.65;;;;;;;33.46;40.28;94973.84;4956495;28;20206;-80
2023/08/25 08:33:08;;;;;;;6.82;5.53;;;;;;;33.98;41.19;94970.81;4959249;28;20197;-83
2023/08/25 08:35:33;;;;;;;6.07;4.45;;;;;;;34.21;36.55;94959.16;4966508;28;20663;-80
2023/08/25 08:37:59;;;;;;;6.00;4.90;;;;;;;34.22;37.20;94958.81;4963643;28;20188;-79
2023/08/25 08:40:25;;;;;;;5.93;4.63;;;;;;;34.37;36.87;94973.59;4964221;28;20225;-79
2023/08/25 08:42:53;;;;;;;7.55;4.32;;;;;;;34.60;36.23;94966.25;4970444;28;20182;-83
2023/08/25 08:45:24;;;;;;;6.80;5.03;;;;;;;34.55;35.99;94972.00;4959506;28;20277;-83
2023/08/25 08:47:50;;;;;;;8.50;4.40;;;;;;;34.17;36.04;94961.81;4952460;28;20185;-79
2023/08/25 08:50:17;;;;;;;5.13;4.38;;;;;;;34.34;35.64;94949.69;4962114;28;20174;-78
2023/08/25 08:52:47;;;;;;;7.22;4.50;;;;;;;34.53;35.79;94951.63;4964923;28;20181;-78
2023/08/25 08:55:15;;;;;;;9.60;5.78;;;;;;;34.51;35.61;94960.19;4941415;29;20615;-79
2023/08/25 08:57:43;;;;;;;9.45;4.90;;;;;;;34.56;37.43;94950.91;4963059;28;20222;-79
2023/08/25 09:00:12;;;;;;;6.13;4.63;;;;;;;34.76;36.02;94961.53;4972938;28;20225;-80
2023/08/25 09:02:38;;;;;;;10.55;4.85;;;;;;;35.07;36.74;94949.56;4973310;28;20185;-78
2023/08/25 09:05:05;;;;;;;5.45;4.85;;;;;;;35.27;35.07;94941.31;4955744;28;20190;-79
2023/08/25 09:07:34;;;;;;;6.70;5.15;;;;;;;35.51;34.28;94949.94;4968918;28;20189;-77
2023/08/25 09:10:01;;;;;;;6.68;4.20;;;;;;;35.61;34.82;94947.72;4955518;28;20629;-79
2023/08/25 09:12:29;;;;;;;7.13;4.95;;;;;;;35.63;34.52;94935.25;4973048;28;20162;-80
2023/08/25 09:14:54;;;;;;;5.53;4.78;;;;;;;35.86;34.75;94946.19;4955785;28;20200;-79
2023/08/25 09:17:21;;;;;;;9.95;4.43;;;;;;;35.46;32.62;94935.78;4955164;28;20599;-79
2023/08/25 09:19:48;;;;;;;11.43;5.00;;;;;;;34.80;33.63;94924.06;4972359;28;20664;-79
2023/08/25 09:22:16;;;;;;;6.40;4.32;;;;;;;34.60;34.69;94938.09;4972562;28;20181;-79
2023/08/25 09:24:43;;;;;;;5.28;3.78;;;;;;;34.22;34.28;94895.13;4973217;28;20189;-79
2023/08/25 09:27:25;;;;;;;6.70;4.90;;;;;;;34.29;33.29;94911.72;4976531;28;20235;-79
2023/08/25 09:29:58;;;;;;;5.75;3.65;;;;;;;34.34;34.12;94934.06;4973828;28;20201;-79
2023/08/25 09:32:24;;;;;;;5.97;3.72;;;;;;;34.38;33.87;94934.16;4976712;28;20232;-79
2023/08/25 09:34:50;;;;;;;5.28;3.63;;;;;;;34.11;33.83;94921.44;4976506;28;20173;-79
2023/08/25 09:37:15;;;;;;;6.03;4.43;;;;;;;33.59;34.22;94908.97;4976424;28;20174;-78
2023/08/25 09:39:44;;;;;;;5.70;3.97;;;;;;;33.65;34.87;94915.75;4976404;28;20703;-78
2023/08/25 09:42:10;;;;;;;5.03;3.60;;;;;;;32.94;35.51;94878.56;4976132;28;20174;-77
2023/08/25 09:44:35;;;;;;;4.82;3.83;;;;;;;33.00;35.52;94914.56;4976077;28;20197;-78
2023/08/25 09:47:04;;;;;;;8.93;4.63;;;;;;;32.53;37.05;94907.84;4976329;28;20193;-77
2023/08/25 09:49:40;;;;;;;8.65;4.47;;;;;;;32.67;37.25;94884.84;4959158;28;20173;-77
2023/08/25 09:52:07;;;;;;;5.90;4.43;;;;;;;32.96;38.32;94901.59;4976195;28;20169;-78
2023/08/25 09:54:34;;;;;;;5.07;4.03;;;;;;;33.06;35.11;94881.19;4975622;28;20174;-77
2023/08/25 09:57:00;;;;;;;5.63;4.45;;;;;;;32.97;35.57;94870.44;4975854;28;20212;-77
2023/08/25 09:59:29;;;;;;;5.88;4.55;;;;;;;32.58;35.91;94855.03;4975517;28;20221;-79
2023/08/25 10:01:55;;;;;;;8.80;4.63;;;;;;;32.86;36.79;94885.00;4975621;28;20369;-78
2023/08/25 10:04:21;;;;;;;5.97;4.20;;;;;;;33.02;36.43;94876.81;4976879;28;20166;-77
2023/08/25 10:06:47;;;;;;;4.88;4.30;;;;;;;33.17;37.62;94884.97;4971539;28;20325;-76
2023/08/25 10:09:12;;;;;;;7.95;4.18;;;;;;;33.32;36.41;94877.94;4974940;28;20268;-76
2023/08/25 10:11:40;;;;;;;6.55;4.00;;;;;;;33.39;35.24;94863.66;4973401;28;20178;-76
2023/08/25 10:14:10;;;;;;;8.65;3.55;;;;;;;33.50;34.73;94872.88;4973739;28;20208;-76
2023/08/25 10:16:44;;;;;;;4.50;4.05;;;;;;;33.55;34.75;94869.88;4973794;28;20236;-76
2023/08/25 10:19:13;;;;;;;5.82;3.72;;;;;;;33.50;32.92;94867.41;4973762;28;20166;-76
2023/08/25 10:21:44;;;;;;;5.75;3.10;;;;;;;33.34;34.38;94876.44;4973753;28;20272;-76
2023/08/25 10:24:12;;;;;;;4.35;3.30;;;;;;;33.36;34.11;94867.91;4973728;28;20165;-76
2023/08/25 10:26:38;;;;;;;4.78;3.40;;;;;;;33.29;33.65;94843.97;4973949;28;20182;-76
2023/08/25 10:29:04;;;;;;;5.57;3.05;;;;;;;33.37;31.94;94864.03;4973759;28;20256;-76
2023/08/25 10:31:30;;;;;;;5.10;3.88;;;;;;;33.25;33.21;94867.66;4973801;28;20220;-76
2023/08/25 10:33:56;;;;;;;5.03;3.25;;;;;;;33.26;33.75;94861.03;4973772;28;20197;-76
2023/08/25 10:36:22;;;;;;;4.32;2.92;;;;;;;33.30;34.19;94861.09;4973203;28;20646;-76
2023/08/25 10:38:54;;;;;;;8.43;3.58;;;;;;;33.36;34.13;94853.44;4973622;28;20173;-76
2023/08/25 10:41:20;;;;;;;5.28;2.78;;;;;;;33.37;33.31;94847.66;4973647;28;20591;-76
2023/08/25 10:43:55;;;;;;;5.82;3.35;;;;;;;33.08;33.39;94839.91;4973646;28;20178;-76
2023/08/25 10:46:23;;;;;;;4.72;2.90;;;;;;;33.16;34.36;94855.28;4973556;28;20189;-76
2023/08/25 10:49:03;;;;;;;4.07;3.55;;;;;;;33.17;34.04;94856.88;4973567;28;20235;-76
2023/08/25 10:51:28;;;;;;;8.95;4.00;;;;;;;33.17;34.52;94848.69;4973469;28;20185;-76
2023/08/25 10:53:54;;;;;;;5.15;3.53;;;;;;;33.27;34.04;94853.66;4956284;28;20203;-76
2023/08/25 10:56:22;;;;;;;3.50;3.10;;;;;;;33.36;33.37;94851.50;4973346;28;20181;-76
2023/08/25 10:59:11;;;;;;;5.28;3.30;;;;;;;33.21;32.77;94847.66;4973142;28;20775;-76
2023/08/25 11:01:36;;;;;;;9.43;3.38;;;;;;;33.19;32.85;94849.94;4963016;28;20186;-76
2023/08/25 11:04:11;;;;;;;6.28;3.13;;;;;;;33.17;34.14;94843.22;4973202;28;20569;-76
2023/08/25 11:06:42;;;;;;;4.35;3.00;;;;;;;33.23;33.31;94836.38;4963186;28;20241;-76
2023/08/25 11:09:09;;;;;;;6.40;3.53;;;;;;;33.29;33.96;94838.50;4953863;28;20654;-76
2023/08/25 11:11:37;;;;;;;5.95;3.25;;;;;;;33.39;33.08;94839.06;4953950;28;20190;-76
2023/08/25 11:14:03;;;;;;;9.88;3.67;;;;;;;33.51;32.83;94838.97;4954067;28;20225;-76
2023/08/25 11:16:28;;;;;;;8.13;3.10;;;;;;;33.56;31.15;94823.06;4953982;28;20261;-76
2023/08/25 11:18:56;;;;;;;5.20;3.13;;;;;;;33.54;31.29;94828.13;4953785;28;20567;-76
2023/08/25 11:21:28;;;;;;;4.47;3.13;;;;;;;33.46;30.73;94817.41;4953814;28;20709;-76